Currituck, North Carolina
Current Conditions -  °F | °C
As of 4:35 AM on Thursday 23 Oct 2014 (Local Time) from KONX Reporting Station
Overcast Overcast  
Wind Chill: 53°   Ceiling: 4700
Heat Index: 53°   Visibility: 10mi
Dew Point: 43°   Wind: 8mph
Humidity: 69%   Direction: 270°W
Pressure: 29.88"   Gusts: NA
Location:  36.45°N, 76.02°W
Report Text: KONX 230835Z AUTO 27007KT 10SM OVC047 12/06 A2988 RMK AO2 T01170061
Loading
Personal Weather Stations






























Interactive Weather Map
Tropical Storm Tracking
New forecast layout! Learn more

10-Day Weather Forecast

Advertisements
Track Severe Weather on mobile